sensor_id;sensor_type;location;lat;lon;timestamp;pressure;altitude;pressure_sealevel;temperature;humidity
28267;BME280;15525;45.568;5.448;2023-04-23T00:00:28;97739.19;;;17.38;57.93
28267;BME280;15525;45.568;5.448;2023-04-23T00:02:56;97740.16;;;17.42;58.16
28267;BME280;15525;45.568;5.448;2023-04-23T00:05:26;97729.31;;;17.34;58.37
28267;BME280;15525;45.568;5.448;2023-04-23T00:07:52;97729.34;;;17.42;57.66
28267;BME280;15525;45.568;5.448;2023-04-23T00:10:18;97721.53;;;17.32;57.86
28267;BME280;15525;45.568;5.448;2023-04-23T00:12:43;97732.34;;;17.41;58.27
28267;BME280;15525;45.568;5.448;2023-04-23T00:15:10;97727.09;;;17.36;58.27
28267;BME280;15525;45.568;5.448;2023-04-23T00:17:36;97722.78;;;17.35;57.95
28267;BME280;15525;45.568;5.448;2023-04-23T00:20:01;97705.94;;;17.21;58.11
28267;BME280;15525;45.568;5.448;2023-04-23T00:22:27;97711.81;;;17.23;58.36
28267;BME280;15525;45.568;5.448;2023-04-23T00:24:52;97720.88;;;17.27;57.97
28267;BME280;15525;45.568;5.448;2023-04-23T00:27:18;97708.00;;;17.15;58.39
28267;BME280;15525;45.568;5.448;2023-04-23T00:29:45;97705.63;;;17.14;58.46
28267;BME280;15525;45.568;5.448;2023-04-23T00:32:10;97691.13;;;17.10;58.60
28267;BME280;15525;45.568;5.448;2023-04-23T00:34:36;97701.47;;;17.25;58.35
28267;BME280;15525;45.568;5.448;2023-04-23T00:37:01;97698.44;;;17.26;58.02
28267;BME280;15525;45.568;5.448;2023-04-23T00:39:30;97693.84;;;17.18;58.21
28267;BME280;15525;45.568;5.448;2023-04-23T00:41:56;97693.22;;;17.13;58.68
28267;BME280;15525;45.568;5.448;2023-04-23T00:44:23;97705.47;;;17.27;58.56
28267;BME280;15525;45.568;5.448;2023-04-23T00:46:48;97702.44;;;17.29;58.00
28267;BME280;15525;45.568;5.448;2023-04-23T00:49:14;97697.03;;;17.29;57.84
28267;BME280;15525;45.568;5.448;2023-04-23T00:51:40;97696.06;;;17.33;58.08
28267;BME280;15525;45.568;5.448;2023-04-23T00:54:05;97688.91;;;17.20;58.31
28267;BME280;15525;45.568;5.448;2023-04-23T00:56:32;97671.75;;;16.99;58.82
28267;BME280;15525;45.568;5.448;2023-04-23T00:58:57;97705.13;;;17.20;58.42
28267;BME280;15525;45.568;5.448;2023-04-23T01:01:23;97678.41;;;17.10;58.76
28267;BME280;15525;45.568;5.448;2023-04-23T01:03:50;97701.97;;;17.18;58.34
28267;BME280;15525;45.568;5.448;2023-04-23T01:06:17;97697.19;;;17.15;59.12
28267;BME280;15525;45.568;5.448;2023-04-23T01:08:43;97691.47;;;17.08;58.77
28267;BME280;15525;45.568;5.448;2023-04-23T01:11:13;97653.63;;;16.91;59.25
28267;BME280;15525;45.568;5.448;2023-04-23T01:13:41;97683.03;;;17.18;58.69
28267;BME280;15525;45.568;5.448;2023-04-23T01:16:07;97683.50;;;17.20;58.59
28267;BME280;15525;45.568;5.448;2023-04-23T01:18:32;97654.06;;;17.10;58.47
28267;BME280;15525;45.568;5.448;2023-04-23T01:20:58;97658.38;;;17.11;58.67
28267;BME280;15525;45.568;5.448;2023-04-23T01:23:24;97646.28;;;17.00;59.02
28267;BME280;15525;45.568;5.448;2023-04-23T01:25:51;97649.16;;;16.95;59.35
28267;BME280;15525;45.568;5.448;2023-04-23T01:28:17;97670.63;;;17.00;58.90
28267;BME280;15525;45.568;5.448;2023-04-23T01:30:43;97658.38;;;16.94;58.87
28267;BME280;15525;45.568;5.448;2023-04-23T01:33:10;97653.63;;;16.91;59.46
28267;BME280;15525;45.568;5.448;2023-04-23T01:35:36;97655.53;;;16.99;59.12
28267;BME280;15525;45.568;5.448;2023-04-23T01:38:02;97652.81;;;16.99;59.45
28267;BME280;15525;45.568;5.448;2023-04-23T01:40:28;97658.84;;;17.05;59.03
28267;BME280;15525;45.568;5.448;2023-04-23T01:42:55;97641.50;;;16.97;58.72
28267;BME280;15525;45.568;5.448;2023-04-23T01:45:21;97655.03;;;16.97;59.31
28267;BME280;15525;45.568;5.448;2023-04-23T01:47:47;97636.28;;;16.84;59.22
28267;BME280;15525;45.568;5.448;2023-04-23T01:50:12;97627.84;;;16.85;59.24
28267;BME280;15525;45.568;5.448;2023-04-23T01:52:38;97643.09;;;16.98;58.93
28267;BME280;15525;45.568;5.448;2023-04-23T01:55:04;97635.19;;;16.76;59.43
28267;BME280;15525;45.568;5.448;2023-04-23T01:57:30;97637.41;;;16.74;60.09
28267;BME280;15525;45.568;5.448;2023-04-23T02:00:02;97632.00;;;16.74;59.78
28267;BME280;15525;45.568;5.448;2023-04-23T02:02:32;97626.13;;;16.72;59.58
28267;BME280;15525;45.568;5.448;2023-04-23T02:04:59;97619.91;;;16.63;59.70
28267;BME280;15525;45.568;5.448;2023-04-23T02:07:31;97628.97;;;16.67;59.46
28267;BME280;15525;45.568;5.448;2023-04-23T02:09:56;97620.88;;;16.67;59.80
28267;BME280;15525;45.568;5.448;2023-04-23T02:12:22;97632.00;;;16.66;59.72
28267;BME280;15525;45.568;5.448;2023-04-23T02:14:48;97621.81;;;16.54;59.54
28267;BME280;15525;45.568;5.448;2023-04-23T02:17:13;97633.25;;;16.60;59.32
28267;BME280;15525;45.568;5.448;2023-04-23T02:19:39;97632.13;;;16.52;59.18
28267;BME280;15525;45.568;5.448;2023-04-23T02:22:05;97641.81;;;16.53;59.23
28267;BME280;15525;45.568;5.448;2023-04-23T02:24:31;97636.41;;;16.36;59.66
28267;BME280;15525;45.568;5.448;2023-04-23T02:26:57;97610.78;;;16.08;59.42
28267;BME280;15525;45.568;5.448;2023-04-23T02:29:23;97626.16;;;16.16;59.74
28267;BME280;15525;45.568;5.448;2023-04-23T02:31:48;97587.84;;;15.97;59.38
28267;BME280;15525;45.568;5.448;2023-04-23T02:34:14;97608.06;;;16.08;59.55
28267;BME280;15525;45.568;5.448;2023-04-23T02:36:39;97615.34;;;15.99;59.64
28267;BME280;15525;45.568;5.448;2023-04-23T02:39:04;97615.31;;;15.91;59.36
28267;BME280;15525;45.568;5.448;2023-04-23T02:41:30;97618.50;;;15.93;59.17
28267;BME280;15525;45.568;5.448;2023-04-23T02:43:56;97624.53;;;15.90;59.29
28267;BME280;15525;45.568;5.448;2023-04-23T02:46:22;97621.66;;;15.86;59.67
28267;BME280;15525;45.568;5.448;2023-04-23T02:48:47;97598.00;;;15.83;59.63
28267;BME280;15525;45.568;5.448;2023-04-23T02:51:13;97633.66;;;16.11;59.41
28267;BME280;15525;45.568;5.448;2023-04-23T02:53:39;97606.16;;;16.00;59.56
28267;BME280;15525;45.568;5.448;2023-04-23T02:56:04;97610.94;;;16.03;59.95
28267;BME280;15525;45.568;5.448;2023-04-23T02:58:31;97620.09;;;16.02;60.03
28267;BME280;15525;45.568;5.448;2023-04-23T03:00:57;97638.38;;;16.05;60.37
28267;BME280;15525;45.568;5.448;2023-04-23T03:03:22;97613.13;;;16.01;59.99
28267;BME280;15525;45.568;5.448;2023-04-23T03:05:51;97626.00;;;16.13;60.34
28267;BME280;15525;45.568;5.448;2023-04-23T03:08:16;97606.31;;;16.04;60.49
28267;BME280;15525;45.568;5.448;2023-04-23T03:10:42;97607.41;;;16.11;60.10
28267;BME280;15525;45.568;5.448;2023-04-23T03:13:07;97622.06;;;16.27;60.01
28267;BME280;15525;45.568;5.448;2023-04-23T03:15:33;97587.41;;;15.95;60.18
28267;BME280;15525;45.568;5.448;2023-04-23T03:17:58;97607.59;;;16.15;59.91
28267;BME280;15525;45.568;5.448;2023-04-23T03:20:26;97603.28;;;16.14;60.91
28267;BME280;15525;45.568;5.448;2023-04-23T03:22:51;97609.81;;;16.13;60.34
28267;BME280;15525;45.568;5.448;2023-04-23T03:25:17;97597.09;;;16.05;61.00
28267;BME280;15525;45.568;5.448;2023-04-23T03:27:42;97616.19;;;16.25;60.49
28267;BME280;15525;45.568;5.448;2023-04-23T03:30:09;97625.41;;;16.24;60.73
28267;BME280;15525;45.568;5.448;2023-04-23T03:32:36;97586.78;;;16.15;60.46
28267;BME280;15525;45.568;5.448;2023-04-23T03:35:01;97553.41;;;15.94;60.60
28267;BME280;15525;45.568;5.448;2023-04-23T03:37:26;97605.22;;;16.30;60.12
28267;BME280;15525;45.568;5.448;2023-04-23T03:39:52;97604.91;;;16.32;60.45
28267;BME280;15525;45.568;5.448;2023-04-23T03:42:17;97584.72;;;16.29;60.51
28267;BME280;15525;45.568;5.448;2023-04-23T03:44:43;97580.75;;;16.27;60.13
28267;BME280;15525;45.568;5.448;2023-04-23T03:47:08;97597.00;;;16.35;60.36
28267;BME280;15525;45.568;5.448;2023-04-23T03:49:34;97574.72;;;16.21;60.15
28267;BME280;15525;45.568;5.448;2023-04-23T03:51:59;97580.91;;;16.22;60.01
28267;BME280;15525;45.568;5.448;2023-04-23T03:54:24;97570.28;;;16.08;60.49
28267;BME280;15525;45.568;5.448;2023-04-23T03:56:52;97556.91;;;15.95;60.22
28267;BME280;15525;45.568;5.448;2023-04-23T03:59:17;97581.06;;;16.08;60.42
28267;BME280;15525;45.568;5.448;2023-04-23T04:01:43;97582.31;;;16.02;60.65
28267;BME280;15525;45.568;5.448;2023-04-23T04:04:08;97568.16;;;15.88;60.84
28267;BME280;15525;45.568;5.448;2023-04-23T04:06:35;97602.81;;;16.03;60.80
28267;BME280;15525;45.568;5.448;2023-04-23T04:09:00;97580.06;;;15.87;61.22
28267;BME280;15525;45.568;5.448;2023-04-23T04:11:25;97573.09;;;15.86;61.68
28267;BME280;15525;45.568;5.448;2023-04-23T04:13:51;97565.75;;;15.70;61.48
28267;BME280;15525;45.568;5.448;2023-04-23T04:16:16;97567.00;;;15.72;61.67
28267;BME280;15525;45.568;5.448;2023-04-23T04:18:42;97577.84;;;15.89;61.38
28267;BME280;15525;45.568;5.448;2023-04-23T04:21:07;97574.03;;;15.90;61.14
28267;BME280;15525;45.568;5.448;2023-04-23T04:23:32;97571.66;;;15.89;61.32
28267;BME280;15525;45.568;5.448;2023-04-23T04:25:59;97564.50;;;15.84;61.37
28267;BME280;15525;45.568;5.448;2023-04-23T04:28:24;97579.59;;;15.94;61.44
28267;BME280;15525;45.568;5.448;2023-04-23T04:30:51;97541.78;;;15.77;61.52
28267;BME280;15525;45.568;5.448;2023-04-23T04:33:18;97544.16;;;15.70;60.96
28267;BME280;15525;45.568;5.448;2023-04-23T04:35:44;97552.88;;;15.67;61.27
28267;BME280;15525;45.568;5.448;2023-04-23T04:38:10;97553.00;;;15.62;61.40
28267;BME280;15525;45.568;5.448;2023-04-23T04:40:36;97553.63;;;15.59;61.17
28267;BME280;15525;45.568;5.448;2023-04-23T04:43:01;97555.94;;;15.43;61.30
28267;BME280;15525;45.568;5.448;2023-04-23T04:45:29;97570.47;;;15.56;61.47
28267;BME280;15525;45.568;5.448;2023-04-23T04:47:54;97561.41;;;15.60;61.20
28267;BME280;15525;45.568;5.448;2023-04-23T04:50:20;97576.22;;;15.71;61.45
28267;BME280;15525;45.568;5.448;2023-04-23T04:52:46;97566.78;;;15.52;61.22
28267;BME280;15525;45.568;5.448;2023-04-23T04:55:11;97562.03;;;15.57;61.01
28267;BME280;15525;45.568;5.448;2023-04-23T04:57:37;97552.03;;;15.58;60.80
28267;BME280;15525;45.568;5.448;2023-04-23T05:00:18;97582.75;;;15.79;61.17
28267;BME280;15525;45.568;5.448;2023-04-23T05:02:46;97558.56;;;15.57;60.75
28267;BME280;15525;45.568;5.448;2023-04-23T05:05:11;97577.44;;;15.65;60.62
28267;BME280;15525;45.568;5.448;2023-04-23T05:07:37;97570.94;;;15.58;60.50
28267;BME280;15525;45.568;5.448;2023-04-23T05:10:02;97578.25;;;15.66;60.78
28267;BME280;15525;45.568;5.448;2023-04-23T05:12:28;97566.03;;;15.60;60.83
28267;BME280;15525;45.568;5.448;2023-04-23T05:14:53;97580.59;;;15.50;60.86
28267;BME280;15525;45.568;5.448;2023-04-23T05:17:19;97564.84;;;15.44;61.11
28267;BME280;15525;45.568;5.448;2023-04-23T05:19:44;97572.50;;;15.59;60.89
28267;BME280;15525;45.568;5.448;2023-04-23T05:22:09;97554.38;;;15.42;60.79
28267;BME280;15525;45.568;5.448;2023-04-23T05:24:35;97545.97;;;15.52;60.53
28267;BME280;15525;45.568;5.448;2023-04-23T05:27:00;97555.84;;;15.48;60.45
28267;BME280;15525;45.568;5.448;2023-04-23T05:29:26;97557.44;;;15.58;60.52
28267;BME280;15525;45.568;5.448;2023-04-23T05:31:52;97549.03;;;15.59;60.62
28267;BME280;15525;45.568;5.448;2023-04-23T05:34:17;97550.50;;;15.74;60.09
28267;BME280;15525;45.568;5.448;2023-04-23T05:36:42;97548.59;;;15.74;60.37
28267;BME280;15525;45.568;5.448;2023-04-23T05:39:08;97565.75;;;15.78;59.80
28267;BME280;15525;45.568;5.448;2023-04-23T05:41:33;97560.97;;;15.75;60.03
28267;BME280;15525;45.568;5.448;2023-04-23T05:43:59;97546.69;;;15.75;59.92
28267;BME280;15525;45.568;5.448;2023-04-23T05:46:25;97524.31;;;15.66;60.11
28267;BME280;15525;45.568;5.448;2023-04-23T05:48:50;97549.09;;;15.85;60.10
28267;BME280;15525;45.568;5.448;2023-04-23T05:51:16;97528.28;;;15.68;60.00
28267;BME280;15525;45.568;5.448;2023-04-23T05:53:42;97551.81;;;15.93;59.87
28267;BME280;15525;45.568;5.448;2023-04-23T05:56:07;97533.72;;;15.85;59.93
28267;BME280;15525;45.568;5.448;2023-04-23T05:58:33;97543.56;;;15.98;59.39
28267;BME280;15525;45.568;5.448;2023-04-23T06:00:58;97538.16;;;15.98;59.05
28267;BME280;15525;45.568;5.448;2023-04-23T06:03:23;97535.94;;;16.00;59.31
28267;BME280;15525;45.568;5.448;2023-04-23T06:05:49;97555.81;;;16.04;59.18
28267;BME280;15525;45.568;5.448;2023-04-23T06:08:15;97564.41;;;16.15;59.07
28267;BME280;15525;45.568;5.448;2023-04-23T06:10:40;97570.28;;;16.25;58.83
28267;BME280;15525;45.568;5.448;2023-04-23T06:13:06;97548.66;;;16.08;59.23
28267;BME280;15525;45.568;5.448;2023-04-23T06:15:31;97562.97;;;16.17;59.15
28267;BME280;15525;45.568;5.448;2023-04-23T06:17:57;97554.88;;;16.34;59.09
28267;BME280;15525;45.568;5.448;2023-04-23T06:20:23;97542.31;;;16.38;58.93
28267;BME280;15525;45.568;5.448;2023-04-23T06:22:48;97545.03;;;16.55;59.22
28267;BME280;15525;45.568;5.448;2023-04-23T06:25:13;97548.38;;;16.69;58.84
28267;BME280;15525;45.568;5.448;2023-04-23T06:27:39;97548.19;;;16.91;58.14
28267;BME280;15525;45.568;5.448;2023-04-23T06:30:05;97525.28;;;16.89;58.03
28267;BME280;15525;45.568;5.448;2023-04-23T06:32:31;97541.97;;;16.99;58.24
28267;BME280;15525;45.568;5.448;2023-04-23T06:34:56;97534.63;;;17.08;58.49
28267;BME280;15525;45.568;5.448;2023-04-23T06:37:21;97542.66;;;17.25;58.03
28267;BME280;15525;45.568;5.448;2023-04-23T06:39:47;97537.06;;;17.30;57.72
28267;BME280;15525;45.568;5.448;2023-04-23T06:42:13;97524.47;;;17.34;57.95
28267;BME280;15525;45.568;5.448;2023-04-23T06:44:39;97536.81;;;17.61;57.81
28267;BME280;15525;45.568;5.448;2023-04-23T06:47:04;97521.28;;;17.70;57.53
28267;BME280;15525;45.568;5.448;2023-04-23T06:49:29;97526.75;;;17.90;57.73
28267;BME280;15525;45.568;5.448;2023-04-23T06:51:55;97516.13;;;18.06;57.49
28267;BME280;15525;45.568;5.448;2023-04-23T06:54:20;97512.50;;;18.22;57.10
28267;BME280;15525;45.568;5.448;2023-04-23T06:56:46;97517.03;;;18.39;56.85
28267;BME280;15525;45.568;5.448;2023-04-23T06:59:11;97531.34;;;18.60;56.63
28267;BME280;15525;45.568;5.448;2023-04-23T07:01:37;97526.22;;;18.79;56.56
28267;BME280;15525;45.568;5.448;2023-04-23T07:04:02;97522.94;;;18.85;56.65
28267;BME280;15525;45.568;5.448;2023-04-23T07:06:28;97532.00;;;18.89;56.66
28267;BME280;15525;45.568;5.448;2023-04-23T07:08:53;97519.63;;;19.00;56.08
28267;BME280;15525;45.568;5.448;2023-04-23T07:11:18;97521.34;;;19.17;55.72
28267;BME280;15525;45.568;5.448;2023-04-23T07:13:44;97532.38;;;19.32;55.36
28267;BME280;15525;45.568;5.448;2023-04-23T07:16:10;97517.34;;;19.35;54.83
28267;BME280;15525;45.568;5.448;2023-04-23T07:18:35;97530.09;;;19.58;53.99
28267;BME280;15525;45.568;5.448;2023-04-23T07:21:01;97516.31;;;19.63;53.16
28267;BME280;15525;45.568;5.448;2023-04-23T07:23:26;97507.00;;;19.88;52.47
28267;BME280;15525;45.568;5.448;2023-04-23T07:25:52;97511.53;;;19.96;51.89
28267;BME280;15525;45.568;5.448;2023-04-23T07:28:17;97495.69;;;19.86;51.64
28267;BME280;15525;45.568;5.448;2023-04-23T07:30:43;97495.00;;;19.89;51.27
28267;BME280;15525;45.568;5.448;2023-04-23T07:33:09;97493.06;;;20.14;50.53
28267;BME280;15525;45.568;5.448;2023-04-23T07:35:34;97477.75;;;20.21;50.28
28267;BME280;15525;45.568;5.448;2023-04-23T07:38:00;97491.25;;;20.18;50.38
28267;BME280;15525;45.568;5.448;2023-04-23T07:40:25;97497.16;;;20.08;50.40
28267;BME280;15525;45.568;5.448;2023-04-23T07:42:51;97513.75;;;20.18;50.39
28267;BME280;15525;45.568;5.448;2023-04-23T07:45:17;97512.22;;;20.45;49.03
28267;BME280;15525;45.568;5.448;2023-04-23T07:47:43;97509.69;;;20.24;48.58
28267;BME280;15525;45.568;5.448;2023-04-23T07:50:10;97514.34;;;20.51;48.11
28267;BME280;15525;45.568;5.448;2023-04-23T07:52:36;97487.28;;;20.03;48.35
28267;BME280;15525;45.568;5.448;2023-04-23T07:55:01;97488.59;;;19.58;48.91
28267;BME280;15525;45.568;5.448;2023-04-23T07:57:27;97498.19;;;19.79;48.79
28267;BME280;15525;45.568;5.448;2023-04-23T07:59:52;97472.84;;;19.87;48.42
28267;BME280;15525;45.568;5.448;2023-04-23T08:02:18;97463.00;;;20.22;47.95
28267;BME280;15525;45.568;5.448;2023-04-23T08:04:47;97474.72;;;20.94;46.94
28267;BME280;15525;45.568;5.448;2023-04-23T08:07:13;97477.38;;;21.37;45.90
28267;BME280;15525;45.568;5.448;2023-04-23T08:09:38;97481.75;;;21.57;45.60
28267;BME280;15525;45.568;5.448;2023-04-23T08:12:04;97451.34;;;21.55;45.72
28267;BME280;15525;45.568;5.448;2023-04-23T08:14:29;97478.31;;;21.60;45.96
28267;BME280;15525;45.568;5.448;2023-04-23T08:16:54;97479.47;;;21.43;46.01
28267;BME280;15525;45.568;5.448;2023-04-23T08:19:20;97478.06;;;21.49;45.79
28267;BME280;15525;45.568;5.448;2023-04-23T08:21:45;97486.31;;;21.68;45.81
28267;BME280;15525;45.568;5.448;2023-04-23T08:24:11;97498.88;;;21.73;45.32
28267;BME280;15525;45.568;5.448;2023-04-23T08:26:36;97485.31;;;21.61;45.63
28267;BME280;15525;45.568;5.448;2023-04-23T08:29:02;97486.97;;;21.96;44.67
28267;BME280;15525;45.568;5.448;2023-04-23T08:31:27;97470.41;;;22.05;44.89
28267;BME280;15525;45.568;5.448;2023-04-23T08:33:53;97497.69;;;22.24;44.81
28267;BME280;15525;45.568;5.448;2023-04-23T08:36:19;97496.13;;;21.88;44.41
28267;BME280;15525;45.568;5.448;2023-04-23T08:38:44;97454.88;;;21.71;44.80
28267;BME280;15525;45.568;5.448;2023-04-23T08:41:12;97514.44;;;21.57;45.05
28267;BME280;15525;45.568;5.448;2023-04-23T08:43:56;97482.72;;;21.33;44.38
28267;BME280;15525;45.568;5.448;2023-04-23T08:46:26;97498.16;;;21.91;44.47
28267;BME280;15525;45.568;5.448;2023-04-23T08:48:58;97494.97;;;22.24;43.60
28267;BME280;15525;45.568;5.448;2023-04-23T08:51:24;97486.72;;;22.39;43.49
28267;BME280;15525;45.568;5.448;2023-04-23T08:53:55;97485.75;;;21.94;43.90
28267;BME280;15525;45.568;5.448;2023-04-23T08:56:23;97470.84;;;21.72;43.46
28267;BME280;15525;45.568;5.448;2023-04-23T08:58:49;97493.59;;;22.49;42.50
28267;BME280;15525;45.568;5.448;2023-04-23T09:01:16;97501.44;;;21.50;43.69
28267;BME280;15525;45.568;5.448;2023-04-23T09:03:42;97497.03;;;21.77;43.21
28267;BME280;15525;45.568;5.448;2023-04-23T09:06:08;97488.69;;;22.04;42.46
28267;BME280;15525;45.568;5.448;2023-04-23T09:08:34;97471.50;;;22.00;42.21
28267;BME280;15525;45.568;5.448;2023-04-23T09:11:00;97497.69;;;22.24;41.95
28267;BME280;15525;45.568;5.448;2023-04-23T09:13:27;97468.34;;;22.36;41.46
28267;BME280;15525;45.568;5.448;2023-04-23T09:15:53;97450.91;;;22.60;40.93
28267;BME280;15525;45.568;5.448;2023-04-23T09:18:19;97470.59;;;22.31;41.00
28267;BME280;15525;45.568;5.448;2023-04-23T09:20:45;97455.28;;;21.73;41.37
28267;BME280;15525;45.568;5.448;2023-04-23T09:23:13;97444.47;;;21.76;41.42
28267;BME280;15525;45.568;5.448;2023-04-23T09:25:39;97460.97;;;22.37;41.19
28267;BME280;15525;45.568;5.448;2023-04-23T09:28:07;97473.03;;;22.36;41.25
28267;BME280;15525;45.568;5.448;2023-04-23T09:30:38;97472.41;;;22.61;40.67
28267;BME280;15525;45.568;5.448;2023-04-23T09:33:05;97447.34;;;22.97;40.46
28267;BME280;15525;45.568;5.448;2023-04-23T09:35:31;97457.47;;;23.42;39.96
28267;BME280;15525;45.568;5.448;2023-04-23T09:38:00;97438.91;;;23.28;39.81
28267;BME280;15525;45.568;5.448;2023-04-23T09:40:30;97438.66;;;23.37;39.69
28267;BME280;15525;45.568;5.448;2023-04-23T09:42:55;97450.53;;;23.74;39.81
28267;BME280;15525;45.568;5.448;2023-04-23T09:45:21;97450.31;;;23.11;39.75
28267;BME280;15525;45.568;5.448;2023-04-23T09:47:52;97448.88;;;22.38;40.59
28267;BME280;15525;45.568;5.448;2023-04-23T09:50:19;97468.59;;;22.47;40.57
28267;BME280;15525;45.568;5.448;2023-04-23T09:52:55;97452.63;;;22.68;40.16
28267;BME280;15525;45.568;5.448;2023-04-23T09:55:32;97459.75;;;22.53;39.94
28267;BME280;15525;45.568;5.448;2023-04-23T09:58:12;97429.28;;;22.70;40.27
28267;BME280;15525;45.568;5.448;2023-04-23T10:00:39;97424.94;;;23.11;40.02
28267;BME280;15525;45.568;5.448;2023-04-23T10:03:06;97438.84;;;23.25;39.70
28267;BME280;15525;45.568;5.448;2023-04-23T10:05:39;97439.44;;;22.92;39.30
28267;BME280;15525;45.568;5.448;2023-04-23T10:08:06;97439.06;;;22.94;39.94
28267;BME280;15525;45.568;5.448;2023-04-23T10:10:33;97434.91;;;23.22;39.36
28267;BME280;15525;45.568;5.448;2023-04-23T10:12:59;97430.53;;;23.18;39.42
28267;BME280;15525;45.568;5.448;2023-04-23T10:15:25;97409.56;;;23.03;39.13
28267;BME280;15525;45.568;5.448;2023-04-23T10:17:52;97432.56;;;23.02;39.16
28267;BME280;15525;45.568;5.448;2023-04-23T10:20:19;97438.00;;;23.21;38.53
28267;BME280;15525;45.568;5.448;2023-04-23T10:22:46;97430.34;;;22.85;38.56
28267;BME280;15525;45.568;5.448;2023-04-23T10:25:12;97417.13;;;23.32;38.18
28267;BME280;15525;45.568;5.448;2023-04-23T10:27:42;97422.22;;;23.33;37.89
28267;BME280;15525;45.568;5.448;2023-04-23T10:30:10;97418.53;;;23.74;38.04
28267;BME280;15525;45.568;5.448;2023-04-23T10:32:36;97416.00;;;23.62;37.64
28267;BME280;15525;45.568;5.448;2023-04-23T10:35:03;97418.91;;;23.73;37.67
28267;BME280;15525;45.568;5.448;2023-04-23T10:37:29;97408.72;;;23.96;37.13
28267;BME280;15525;45.568;5.448;2023-04-23T10:40:04;97390.56;;;24.47;36.27
28267;BME280;15525;45.568;5.448;2023-04-23T10:42:32;97396.59;;;24.30;36.18
28267;BME280;15525;45.568;5.448;2023-04-23T10:44:57;97379.00;;;24.27;35.84
28267;BME280;15525;45.568;5.448;2023-04-23T10:47:23;97408.44;;;24.08;34.67
28267;BME280;15525;45.568;5.448;2023-04-23T10:49:48;97405.72;;;24.08;35.41
28267;BME280;15525;45.568;5.448;2023-04-23T10:52:15;97399.13;;;23.83;34.65
28267;BME280;15525;45.568;5.448;2023-04-23T10:54:42;97383.69;;;23.68;34.61
28267;BME280;15525;45.568;5.448;2023-04-23T10:57:09;97407.63;;;23.48;34.42
28267;BME280;15525;45.568;5.448;2023-04-23T10:59:40;97368.25;;;23.53;34.41
28267;BME280;15525;45.568;5.448;2023-04-23T11:02:15;97378.81;;;23.84;34.36
28267;BME280;15525;45.568;5.448;2023-04-23T11:04:44;97379.75;;;24.24;33.92
28267;BME280;15525;45.568;5.448;2023-04-23T11:07:11;97366.56;;;24.00;34.06
28267;BME280;15525;45.568;5.448;2023-04-23T11:09:47;97382.25;;;24.07;34.17
28267;BME280;15525;45.568;5.448;2023-04-23T11:12:30;97356.06;;;24.02;33.70
28267;BME280;15525;45.568;5.448;2023-04-23T11:14:57;97376.13;;;23.58;34.40
28267;BME280;15525;45.568;5.448;2023-04-23T11:22:48;97360.59;;;23.36;34.78
28267;BME280;15525;45.568;5.448;2023-04-23T11:25:22;97370.84;;;23.42;34.75
28267;BME280;15525;45.568;5.448;2023-04-23T11:27:48;97373.81;;;23.34;35.11
28267;BME280;15525;45.568;5.448;2023-04-23T11:30:19;97354.13;;;23.21;35.11
28267;BME280;15525;45.568;5.448;2023-04-23T11:32:50;97374.25;;;23.13;35.54
28267;BME280;15525;45.568;5.448;2023-04-23T11:35:17;97375.25;;;23.02;35.95
28267;BME280;15525;45.568;5.448;2023-04-23T11:37:43;97362.38;;;23.25;35.94
28267;BME280;15525;45.568;5.448;2023-04-23T11:40:13;97346.28;;;23.20;35.76
28267;BME280;15525;45.568;5.448;2023-04-23T11:42:44;97381.44;;;23.47;35.91
28267;BME280;15525;45.568;5.448;2023-04-23T11:45:19;97384.44;;;23.39;36.02
28267;BME280;15525;45.568;5.448;2023-04-23T11:47:48;97385.78;;;23.03;35.69
28267;BME280;15525;45.568;5.448;2023-04-23T11:50:19;97390.84;;;23.01;35.43
28267;BME280;15525;45.568;5.448;2023-04-23T11:52:45;97387.25;;;23.20;35.41
28267;BME280;15525;45.568;5.448;2023-04-23T11:55:10;97382.56;;;22.98;34.73
28267;BME280;15525;45.568;5.448;2023-04-23T11:57:44;97379.88;;;22.75;35.05
28267;BME280;15525;45.568;5.448;2023-04-23T12:00:20;97377.31;;;22.86;35.17
28267;BME280;15525;45.568;5.448;2023-04-23T12:02:54;97373.84;;;22.89;34.94
28267;BME280;15525;45.568;5.448;2023-04-23T12:07:52;97377.25;;;23.05;35.06
28267;BME280;15525;45.568;5.448;2023-04-23T12:10:19;97365.16;;;23.06;35.29
28267;BME280;15525;45.568;5.448;2023-04-23T12:12:48;97364.53;;;22.90;35.51
28267;BME280;15525;45.568;5.448;2023-04-23T12:15:14;97345.34;;;22.64;35.90
28267;BME280;15525;45.568;5.448;2023-04-23T12:17:40;97346.38;;;23.01;36.06
28267;BME280;15525;45.568;5.448;2023-04-23T12:20:09;97339.28;;;22.96;35.94
28267;BME280;15525;45.568;5.448;2023-04-23T12:22:36;97322.59;;;23.01;36.07
28267;BME280;15525;45.568;5.448;2023-04-23T12:25:04;97324.88;;;23.22;35.74
28267;BME280;15525;45.568;5.448;2023-04-23T12:27:32;97332.56;;;23.16;36.07
28267;BME280;15525;45.568;5.448;2023-04-23T12:30:03;97349.41;;;22.96;36.09
28267;BME280;15525;45.568;5.448;2023-04-23T12:32:28;97348.88;;;22.64;36.29
28267;BME280;15525;45.568;5.448;2023-04-23T12:34:54;97346.25;;;22.94;35.98
28267;BME280;15525;45.568;5.448;2023-04-23T12:37:27;97339.97;;;22.90;36.24
28267;BME280;15525;45.568;5.448;2023-04-23T12:39:53;97331.53;;;22.53;36.34
28267;BME280;15525;45.568;5.448;2023-04-23T12:42:19;97329.16;;;22.52;36.64
28267;BME280;15525;45.568;5.448;2023-04-23T12:44:45;97325.16;;;23.17;35.97
28267;BME280;15525;45.568;5.448;2023-04-23T12:47:11;97329.03;;;22.67;36.39
28267;BME280;15525;45.568;5.448;2023-04-23T12:49:40;97320.19;;;22.74;36.28
28267;BME280;15525;45.568;5.448;2023-04-23T12:52:06;97335.63;;;22.89;36.44
28267;BME280;15525;45.568;5.448;2023-04-23T12:54:33;97326.88;;;22.54;36.93
28267;BME280;15525;45.568;5.448;2023-04-23T12:57:01;97328.75;;;22.50;36.97
28267;BME280;15525;45.568;5.448;2023-04-23T12:59:27;97321.28;;;22.69;36.73
28267;BME280;15525;45.568;5.448;2023-04-23T13:01:53;97322.41;;;22.68;37.08
28267;BME280;15525;45.568;5.448;2023-04-23T13:04:18;97325.59;;;22.70;37.18